sensor_id;sensor_type;location;lat;lon;timestamp;P1;durP1;ratioP1;P2;durP2;ratioP2
67930;SDS011;63902;52.000;5.954;2023-04-23T00:00:24;46.30;;;26.15;;
67930;SDS011;63902;52.000;5.954;2023-04-23T00:01:26;45.60;;;25.60;;
67930;SDS011;63902;52.000;5.954;2023-04-23T00:02:27;44.38;;;26.23;;
67930;SDS011;63902;52.000;5.954;2023-04-23T00:03:31;42.15;;;25.40;;
67930;SDS011;63902;52.000;5.954;2023-04-23T00:04:33;49.17;;;28.23;;
67930;SDS011;63902;52.000;5.954;2023-04-23T00:05:36;43.65;;;26.52;;
67930;SDS011;63902;52.000;5.954;2023-04-23T00:06:37;44.42;;;26.55;;
67930;SDS011;63902;52.000;5.954;2023-04-23T00:07:39;42.72;;;24.70;;
67930;SDS011;63902;52.000;5.954;2023-04-23T00:08:42;50.08;;;27.23;;
67930;SDS011;63902;52.000;5.954;2023-04-23T00:09:43;51.60;;;28.70;;
67930;SDS011;63902;52.000;5.954;2023-04-23T00:10:44;43.00;;;25.52;;
67930;SDS011;63902;52.000;5.954;2023-04-23T00:11:45;46.67;;;25.83;;
67930;SDS011;63902;52.000;5.954;2023-04-23T00:12:47;49.03;;;26.38;;
67930;SDS011;63902;52.000;5.954;2023-04-23T00:13:47;45.80;;;26.35;;
67930;SDS011;63902;52.000;5.954;2023-04-23T00:14:48;47.83;;;28.60;;
67930;SDS011;63902;52.000;5.954;2023-04-23T00:15:49;48.85;;;27.38;;
67930;SDS011;63902;52.000;5.954;2023-04-23T00:16:50;44.45;;;25.40;;
67930;SDS011;63902;52.000;5.954;2023-04-23T00:17:52;45.20;;;26.67;;
67930;SDS011;63902;52.000;5.954;2023-04-23T00:18:53;47.45;;;27.65;;
67930;SDS011;63902;52.000;5.954;2023-04-23T00:19:53;58.58;;;27.38;;
67930;SDS011;63902;52.000;5.954;2023-04-23T00:20:53;49.78;;;27.70;;
67930;SDS011;63902;52.000;5.954;2023-04-23T00:21:54;54.58;;;27.85;;
67930;SDS011;63902;52.000;5.954;2023-04-23T00:22:54;52.53;;;29.23;;
67930;SDS011;63902;52.000;5.954;2023-04-23T00:23:56;63.65;;;29.20;;
67930;SDS011;63902;52.000;5.954;2023-04-23T00:24:57;52.15;;;27.95;;
67930;SDS011;63902;52.000;5.954;2023-04-23T00:25:57;50.20;;;28.52;;
67930;SDS011;63902;52.000;5.954;2023-04-23T00:26:58;52.58;;;28.35;;
67930;SDS011;63902;52.000;5.954;2023-04-23T00:27:58;54.13;;;29.05;;
67930;SDS011;63902;52.000;5.954;2023-04-23T00:28:59;60.35;;;29.02;;
67930;SDS011;63902;52.000;5.954;2023-04-23T00:29:59;48.03;;;28.25;;
67930;SDS011;63902;52.000;5.954;2023-04-23T00:31:00;47.90;;;27.35;;
67930;SDS011;63902;52.000;5.954;2023-04-23T00:32:00;49.42;;;28.38;;
67930;SDS011;63902;52.000;5.954;2023-04-23T00:33:01;55.33;;;28.00;;
67930;SDS011;63902;52.000;5.954;2023-04-23T00:34:01;50.13;;;28.58;;
67930;SDS011;63902;52.000;5.954;2023-04-23T00:35:02;50.50;;;28.63;;
67930;SDS011;63902;52.000;5.954;2023-04-23T00:36:03;51.28;;;26.05;;
67930;SDS011;63902;52.000;5.954;2023-04-23T00:37:04;47.08;;;26.52;;
67930;SDS011;63902;52.000;5.954;2023-04-23T00:38:04;50.33;;;27.05;;
67930;SDS011;63902;52.000;5.954;2023-04-23T00:39:06;48.20;;;27.27;;
67930;SDS011;63902;52.000;5.954;2023-04-23T00:40:07;47.67;;;25.17;;
67930;SDS011;63902;52.000;5.954;2023-04-23T00:41:08;50.35;;;26.05;;
67930;SDS011;63902;52.000;5.954;2023-04-23T00:42:09;49.67;;;26.50;;
67930;SDS011;63902;52.000;5.954;2023-04-23T00:43:10;43.95;;;26.25;;
67930;SDS011;63902;52.000;5.954;2023-04-23T00:44:10;48.15;;;25.80;;
67930;SDS011;63902;52.000;5.954;2023-04-23T00:45:11;50.70;;;27.17;;
67930;SDS011;63902;52.000;5.954;2023-04-23T00:46:11;49.33;;;26.45;;
67930;SDS011;63902;52.000;5.954;2023-04-23T00:47:12;52.15;;;27.80;;
67930;SDS011;63902;52.000;5.954;2023-04-23T00:48:14;52.70;;;27.63;;
67930;SDS011;63902;52.000;5.954;2023-04-23T00:49:15;49.47;;;27.02;;
67930;SDS011;63902;52.000;5.954;2023-04-23T00:50:17;52.72;;;28.05;;
67930;SDS011;63902;52.000;5.954;2023-04-23T00:51:19;50.25;;;26.25;;
67930;SDS011;63902;52.000;5.954;2023-04-23T00:52:20;53.15;;;27.48;;
67930;SDS011;63902;52.000;5.954;2023-04-23T00:53:21;56.47;;;31.40;;
67930;SDS011;63902;52.000;5.954;2023-04-23T00:54:22;51.22;;;28.73;;
67930;SDS011;63902;52.000;5.954;2023-04-23T00:55:23;47.83;;;28.05;;
67930;SDS011;63902;52.000;5.954;2023-04-23T00:56:24;52.60;;;28.63;;
67930;SDS011;63902;52.000;5.954;2023-04-23T00:57:25;51.47;;;28.55;;
67930;SDS011;63902;52.000;5.954;2023-04-23T00:58:26;57.83;;;30.40;;
67930;SDS011;63902;52.000;5.954;2023-04-23T00:59:28;58.28;;;29.55;;
67930;SDS011;63902;52.000;5.954;2023-04-23T01:00:29;60.35;;;30.58;;
67930;SDS011;63902;52.000;5.954;2023-04-23T01:01:30;61.20;;;30.90;;
67930;SDS011;63902;52.000;5.954;2023-04-23T01:02:30;62.38;;;31.42;;
67930;SDS011;63902;52.000;5.954;2023-04-23T01:03:31;61.55;;;31.98;;
67930;SDS011;63902;52.000;5.954;2023-04-23T01:04:35;60.75;;;29.83;;
67930;SDS011;63902;52.000;5.954;2023-04-23T01:05:36;64.45;;;30.77;;
67930;SDS011;63902;52.000;5.954;2023-04-23T01:06:37;57.05;;;30.50;;
67930;SDS011;63902;52.000;5.954;2023-04-23T01:07:38;62.95;;;31.25;;
67930;SDS011;63902;52.000;5.954;2023-04-23T01:08:39;59.33;;;29.00;;
67930;SDS011;63902;52.000;5.954;2023-04-23T01:09:43;60.33;;;30.58;;
67930;SDS011;63902;52.000;5.954;2023-04-23T01:10:44;63.95;;;31.95;;
67930;SDS011;63902;52.000;5.954;2023-04-23T01:11:46;63.00;;;30.50;;
67930;SDS011;63902;52.000;5.954;2023-04-23T01:12:48;59.33;;;30.92;;
67930;SDS011;63902;52.000;5.954;2023-04-23T01:13:49;54.67;;;30.67;;
67930;SDS011;63902;52.000;5.954;2023-04-23T01:14:50;63.35;;;31.73;;
67930;SDS011;63902;52.000;5.954;2023-04-23T01:15:51;59.30;;;30.25;;
67930;SDS011;63902;52.000;5.954;2023-04-23T01:16:51;55.58;;;30.85;;
67930;SDS011;63902;52.000;5.954;2023-04-23T01:17:52;53.92;;;28.88;;
67930;SDS011;63902;52.000;5.954;2023-04-23T01:18:52;60.88;;;31.00;;
67930;SDS011;63902;52.000;5.954;2023-04-23T01:19:53;54.25;;;28.40;;
67930;SDS011;63902;52.000;5.954;2023-04-23T01:20:53;57.90;;;30.45;;
67930;SDS011;63902;52.000;5.954;2023-04-23T01:21:54;53.97;;;28.25;;
67930;SDS011;63902;52.000;5.954;2023-04-23T01:22:57;58.47;;;28.70;;
67930;SDS011;63902;52.000;5.954;2023-04-23T01:23:57;59.75;;;29.95;;
67930;SDS011;63902;52.000;5.954;2023-04-23T01:24:58;56.95;;;29.23;;
67930;SDS011;63902;52.000;5.954;2023-04-23T01:25:58;54.47;;;29.63;;
67930;SDS011;63902;52.000;5.954;2023-04-23T01:26:59;52.15;;;28.20;;
67930;SDS011;63902;52.000;5.954;2023-04-23T01:28:00;53.53;;;27.42;;
67930;SDS011;63902;52.000;5.954;2023-04-23T01:29:00;61.65;;;30.02;;
67930;SDS011;63902;52.000;5.954;2023-04-23T01:30:02;53.58;;;27.73;;
67930;SDS011;63902;52.000;5.954;2023-04-23T01:31:04;54.85;;;27.25;;
67930;SDS011;63902;52.000;5.954;2023-04-23T01:32:04;59.55;;;29.45;;
67930;SDS011;63902;52.000;5.954;2023-04-23T01:33:06;56.45;;;28.55;;
67930;SDS011;63902;52.000;5.954;2023-04-23T01:34:07;53.33;;;28.08;;
67930;SDS011;63902;52.000;5.954;2023-04-23T01:35:08;60.10;;;29.85;;
67930;SDS011;63902;52.000;5.954;2023-04-23T01:36:09;56.67;;;29.50;;
67930;SDS011;63902;52.000;5.954;2023-04-23T01:37:10;67.50;;;31.40;;
67930;SDS011;63902;52.000;5.954;2023-04-23T01:38:12;59.28;;;30.38;;
67930;SDS011;63902;52.000;5.954;2023-04-23T01:39:13;57.83;;;30.30;;
67930;SDS011;63902;52.000;5.954;2023-04-23T01:40:14;58.33;;;30.70;;
67930;SDS011;63902;52.000;5.954;2023-04-23T01:41:14;57.63;;;29.35;;
67930;SDS011;63902;52.000;5.954;2023-04-23T01:42:15;58.50;;;29.88;;
67930;SDS011;63902;52.000;5.954;2023-04-23T01:43:15;57.33;;;27.98;;
67930;SDS011;63902;52.000;5.954;2023-04-23T01:44:16;62.60;;;27.85;;
67930;SDS011;63902;52.000;5.954;2023-04-23T01:45:17;60.03;;;29.80;;
67930;SDS011;63902;52.000;5.954;2023-04-23T01:46:18;54.70;;;29.63;;
67930;SDS011;63902;52.000;5.954;2023-04-23T01:47:19;59.05;;;30.67;;
67930;SDS011;63902;52.000;5.954;2023-04-23T01:48:20;58.53;;;29.75;;
67930;SDS011;63902;52.000;5.954;2023-04-23T01:49:21;64.35;;;30.25;;
67930;SDS011;63902;52.000;5.954;2023-04-23T01:50:21;56.20;;;29.10;;
67930;SDS011;63902;52.000;5.954;2023-04-23T01:51:22;55.42;;;29.33;;
67930;SDS011;63902;52.000;5.954;2023-04-23T01:52:22;60.67;;;30.98;;
67930;SDS011;63902;52.000;5.954;2023-04-23T01:53:24;66.32;;;31.05;;
67930;SDS011;63902;52.000;5.954;2023-04-23T01:54:24;60.67;;;30.55;;
67930;SDS011;63902;52.000;5.954;2023-04-23T01:55:25;65.95;;;30.40;;
67930;SDS011;63902;52.000;5.954;2023-04-23T01:56:26;63.70;;;31.23;;
67930;SDS011;63902;52.000;5.954;2023-04-23T01:57:27;71.22;;;33.85;;
67930;SDS011;63902;52.000;5.954;2023-04-23T01:58:28;64.32;;;31.55;;
67930;SDS011;63902;52.000;5.954;2023-04-23T01:59:28;69.47;;;33.08;;
67930;SDS011;63902;52.000;5.954;2023-04-23T02:00:29;67.30;;;31.27;;
67930;SDS011;63902;52.000;5.954;2023-04-23T02:01:39;65.07;;;33.30;;
67930;SDS011;63902;52.000;5.954;2023-04-23T02:02:41;65.55;;;32.33;;
67930;SDS011;63902;52.000;5.954;2023-04-23T02:03:42;73.60;;;32.95;;
67930;SDS011;63902;52.000;5.954;2023-04-23T02:04:43;58.72;;;31.23;;
67930;SDS011;63902;52.000;5.954;2023-04-23T02:05:44;60.03;;;32.85;;
67930;SDS011;63902;52.000;5.954;2023-04-23T02:06:46;68.15;;;33.00;;
67930;SDS011;63902;52.000;5.954;2023-04-23T02:07:48;66.53;;;31.80;;
67930;SDS011;63902;52.000;5.954;2023-04-23T02:08:51;67.68;;;30.48;;
67930;SDS011;63902;52.000;5.954;2023-04-23T02:09:52;61.05;;;30.15;;
67930;SDS011;63902;52.000;5.954;2023-04-23T02:10:52;56.50;;;30.35;;
67930;SDS011;63902;52.000;5.954;2023-04-23T02:11:53;62.47;;;30.42;;
67930;SDS011;63902;52.000;5.954;2023-04-23T02:12:53;59.65;;;29.88;;
67930;SDS011;63902;52.000;5.954;2023-04-23T02:13:53;60.03;;;29.92;;
67930;SDS011;63902;52.000;5.954;2023-04-23T02:14:54;59.08;;;31.02;;
67930;SDS011;63902;52.000;5.954;2023-04-23T02:15:54;67.22;;;30.10;;
67930;SDS011;63902;52.000;5.954;2023-04-23T02:16:55;61.15;;;32.25;;
67930;SDS011;63902;52.000;5.954;2023-04-23T02:17:55;63.33;;;31.58;;
67930;SDS011;63902;52.000;5.954;2023-04-23T02:18:56;59.75;;;30.13;;
67930;SDS011;63902;52.000;5.954;2023-04-23T02:19:56;60.83;;;31.98;;
67930;SDS011;63902;52.000;5.954;2023-04-23T02:20:57;56.78;;;30.88;;
67930;SDS011;63902;52.000;5.954;2023-04-23T02:21:57;60.00;;;29.40;;
67930;SDS011;63902;52.000;5.954;2023-04-23T02:22:58;61.58;;;30.20;;
67930;SDS011;63902;52.000;5.954;2023-04-23T02:24:00;59.50;;;30.85;;
67930;SDS011;63902;52.000;5.954;2023-04-23T02:25:00;63.58;;;31.50;;
67930;SDS011;63902;52.000;5.954;2023-04-23T02:26:01;62.65;;;30.60;;
67930;SDS011;63902;52.000;5.954;2023-04-23T02:27:01;57.13;;;28.85;;
67930;SDS011;63902;52.000;5.954;2023-04-23T02:28:02;59.38;;;29.42;;
67930;SDS011;63902;52.000;5.954;2023-04-23T02:29:02;56.55;;;28.27;;
67930;SDS011;63902;52.000;5.954;2023-04-23T02:30:03;56.88;;;30.63;;
67930;SDS011;63902;52.000;5.954;2023-04-23T02:31:05;62.15;;;30.92;;
67930;SDS011;63902;52.000;5.954;2023-04-23T02:32:05;57.97;;;30.73;;
67930;SDS011;63902;52.000;5.954;2023-04-23T02:33:06;59.97;;;29.38;;
67930;SDS011;63902;52.000;5.954;2023-04-23T02:34:06;66.45;;;31.20;;
67930;SDS011;63902;52.000;5.954;2023-04-23T02:35:07;61.38;;;31.20;;
67930;SDS011;63902;52.000;5.954;2023-04-23T02:36:08;63.83;;;31.95;;
67930;SDS011;63902;52.000;5.954;2023-04-23T02:37:08;61.20;;;30.20;;
67930;SDS011;63902;52.000;5.954;2023-04-23T02:38:09;60.13;;;30.45;;
67930;SDS011;63902;52.000;5.954;2023-04-23T02:39:11;60.83;;;29.58;;
67930;SDS011;63902;52.000;5.954;2023-04-23T02:40:11;65.85;;;32.15;;
67930;SDS011;63902;52.000;5.954;2023-04-23T02:41:12;72.53;;;32.47;;
67930;SDS011;63902;52.000;5.954;2023-04-23T02:42:12;64.97;;;30.70;;
67930;SDS011;63902;52.000;5.954;2023-04-23T02:43:13;60.20;;;28.90;;
67930;SDS011;63902;52.000;5.954;2023-04-23T02:44:13;58.35;;;30.15;;
67930;SDS011;63902;52.000;5.954;2023-04-23T02:45:14;58.47;;;30.30;;
67930;SDS011;63902;52.000;5.954;2023-04-23T02:46:14;60.60;;;29.27;;
67930;SDS011;63902;52.000;5.954;2023-04-23T02:47:15;64.18;;;30.85;;
67930;SDS011;63902;52.000;5.954;2023-04-23T02:48:15;59.53;;;30.95;;
67930;SDS011;63902;52.000;5.954;2023-04-23T02:49:16;65.22;;;30.05;;
67930;SDS011;63902;52.000;5.954;2023-04-23T02:50:16;63.13;;;30.48;;
67930;SDS011;63902;52.000;5.954;2023-04-23T02:51:17;55.13;;;29.00;;
67930;SDS011;63902;52.000;5.954;2023-04-23T02:52:18;59.13;;;28.92;;
67930;SDS011;63902;52.000;5.954;2023-04-23T02:53:18;57.80;;;29.35;;
67930;SDS011;63902;52.000;5.954;2023-04-23T02:54:20;65.18;;;31.77;;
67930;SDS011;63902;52.000;5.954;2023-04-23T02:55:21;60.33;;;29.08;;
67930;SDS011;63902;52.000;5.954;2023-04-23T02:56:21;52.60;;;29.08;;
67930;SDS011;63902;52.000;5.954;2023-04-23T02:57:22;61.75;;;29.67;;
67930;SDS011;63902;52.000;5.954;2023-04-23T02:58:22;54.92;;;28.90;;
67930;SDS011;63902;52.000;5.954;2023-04-23T02:59:23;67.53;;;30.38;;
67930;SDS011;63902;52.000;5.954;2023-04-23T03:00:24;63.20;;;29.52;;
67930;SDS011;63902;52.000;5.954;2023-04-23T03:01:25;56.60;;;28.42;;
67930;SDS011;63902;52.000;5.954;2023-04-23T03:02:25;56.25;;;29.52;;
67930;SDS011;63902;52.000;5.954;2023-04-23T03:03:26;54.53;;;29.40;;
67930;SDS011;63902;52.000;5.954;2023-04-23T03:04:27;59.95;;;29.65;;
67930;SDS011;63902;52.000;5.954;2023-04-23T03:05:28;57.60;;;28.85;;
67930;SDS011;63902;52.000;5.954;2023-04-23T03:06:29;58.15;;;27.77;;
67930;SDS011;63902;52.000;5.954;2023-04-23T03:07:29;62.97;;;29.45;;
67930;SDS011;63902;52.000;5.954;2023-04-23T03:08:30;61.10;;;29.33;;
67930;SDS011;63902;52.000;5.954;2023-04-23T03:09:32;64.10;;;30.42;;
67930;SDS011;63902;52.000;5.954;2023-04-23T03:10:32;58.60;;;28.30;;
67930;SDS011;63902;52.000;5.954;2023-04-23T03:11:33;55.75;;;27.95;;
67930;SDS011;63902;52.000;5.954;2023-04-23T03:12:33;52.10;;;26.58;;
67930;SDS011;63902;52.000;5.954;2023-04-23T03:13:34;52.45;;;27.88;;
67930;SDS011;63902;52.000;5.954;2023-04-23T03:14:34;57.13;;;28.65;;
67930;SDS011;63902;52.000;5.954;2023-04-23T03:15:35;55.35;;;27.95;;
67930;SDS011;63902;52.000;5.954;2023-04-23T03:16:35;58.90;;;27.55;;
67930;SDS011;63902;52.000;5.954;2023-04-23T03:17:36;55.97;;;28.27;;
67930;SDS011;63902;52.000;5.954;2023-04-23T03:18:36;61.65;;;27.95;;
67930;SDS011;63902;52.000;5.954;2023-04-23T03:19:37;53.85;;;27.80;;
67930;SDS011;63902;52.000;5.954;2023-04-23T03:20:37;51.80;;;27.38;;
67930;SDS011;63902;52.000;5.954;2023-04-23T03:21:38;48.45;;;25.77;;
67930;SDS011;63902;52.000;5.954;2023-04-23T03:22:38;54.97;;;27.23;;
67930;SDS011;63902;52.000;5.954;2023-04-23T03:23:39;52.60;;;26.52;;
67930;SDS011;63902;52.000;5.954;2023-04-23T03:24:41;54.47;;;27.95;;
67930;SDS011;63902;52.000;5.954;2023-04-23T03:25:41;53.97;;;27.85;;
67930;SDS011;63902;52.000;5.954;2023-04-23T03:26:42;52.88;;;27.50;;
67930;SDS011;63902;52.000;5.954;2023-04-23T03:27:42;48.28;;;26.45;;
67930;SDS011;63902;52.000;5.954;2023-04-23T03:28:43;48.50;;;25.88;;
67930;SDS011;63902;52.000;5.954;2023-04-23T03:29:43;52.80;;;26.42;;
67930;SDS011;63902;52.000;5.954;2023-04-23T03:30:44;49.13;;;26.13;;
67930;SDS011;63902;52.000;5.954;2023-04-23T03:31:44;51.20;;;26.88;;
67930;SDS011;63902;52.000;5.954;2023-04-23T03:32:45;52.72;;;27.88;;
67930;SDS011;63902;52.000;5.954;2023-04-23T03:33:45;46.67;;;24.13;;
67930;SDS011;63902;52.000;5.954;2023-04-23T03:34:46;55.30;;;25.77;;
67930;SDS011;63902;52.000;5.954;2023-04-23T03:35:46;57.40;;;25.85;;
67930;SDS011;63902;52.000;5.954;2023-04-23T03:36:47;52.90;;;26.10;;
67930;SDS011;63902;52.000;5.954;2023-04-23T03:37:47;55.55;;;27.50;;
67930;SDS011;63902;52.000;5.954;2023-04-23T03:38:48;49.72;;;25.77;;
67930;SDS011;63902;52.000;5.954;2023-04-23T03:39:50;53.13;;;25.50;;
67930;SDS011;63902;52.000;5.954;2023-04-23T03:40:50;53.63;;;26.17;;
67930;SDS011;63902;52.000;5.954;2023-04-23T03:41:51;48.97;;;25.75;;
67930;SDS011;63902;52.000;5.954;2023-04-23T03:42:51;53.80;;;27.00;;
67930;SDS011;63902;52.000;5.954;2023-04-23T03:43:52;55.17;;;26.67;;
67930;SDS011;63902;52.000;5.954;2023-04-23T03:44:52;55.80;;;27.25;;
67930;SDS011;63902;52.000;5.954;2023-04-23T03:45:53;53.67;;;28.23;;
67930;SDS011;63902;52.000;5.954;2023-04-23T03:46:53;55.53;;;27.85;;
67930;SDS011;63902;52.000;5.954;2023-04-23T03:47:54;56.03;;;26.75;;
67930;SDS011;63902;52.000;5.954;2023-04-23T03:48:54;56.08;;;26.83;;
67930;SDS011;63902;52.000;5.954;2023-04-23T03:49:55;59.25;;;28.92;;
67930;SDS011;63902;52.000;5.954;2023-04-23T03:50:56;50.33;;;25.77;;
67930;SDS011;63902;52.000;5.954;2023-04-23T03:51:57;55.35;;;27.23;;
67930;SDS011;63902;52.000;5.954;2023-04-23T03:52:57;51.97;;;26.17;;
67930;SDS011;63902;52.000;5.954;2023-04-23T03:53:58;50.53;;;27.13;;
67930;SDS011;63902;52.000;5.954;2023-04-23T03:55:00;49.63;;;26.30;;
67930;SDS011;63902;52.000;5.954;2023-04-23T03:56:00;52.90;;;27.60;;
67930;SDS011;63902;52.000;5.954;2023-04-23T03:57:01;47.53;;;26.35;;
67930;SDS011;63902;52.000;5.954;2023-04-23T03:58:01;52.30;;;25.75;;
67930;SDS011;63902;52.000;5.954;2023-04-23T03:59:02;47.67;;;25.38;;
67930;SDS011;63902;52.000;5.954;2023-04-23T04:00:03;56.97;;;26.52;;
67930;SDS011;63902;52.000;5.954;2023-04-23T04:01:05;51.83;;;26.95;;
67930;SDS011;63902;52.000;5.954;2023-04-23T04:02:06;46.25;;;24.17;;
67930;SDS011;63902;52.000;5.954;2023-04-23T04:03:06;52.72;;;26.75;;
67930;SDS011;63902;52.000;5.954;2023-04-23T04:04:06;50.13;;;27.13;;
67930;SDS011;63902;52.000;5.954;2023-04-23T04:05:07;54.92;;;26.85;;
67930;SDS011;63902;52.000;5.954;2023-04-23T04:06:08;47.58;;;26.33;;
67930;SDS011;63902;52.000;5.954;2023-04-23T04:07:09;50.92;;;27.25;;
67930;SDS011;63902;52.000;5.954;2023-04-23T04:08:09;54.85;;;27.20;;
67930;SDS011;63902;52.000;5.954;2023-04-23T04:09:09;55.97;;;26.33;;
67930;SDS011;63902;52.000;5.954;2023-04-23T04:10:11;52.33;;;26.45;;
67930;SDS011;63902;52.000;5.954;2023-04-23T04:11:12;51.03;;;27.48;;
67930;SDS011;63902;52.000;5.954;2023-04-23T04:12:12;56.03;;;27.45;;
67930;SDS011;63902;52.000;5.954;2023-04-23T04:13:13;52.97;;;26.77;;
67930;SDS011;63902;52.000;5.954;2023-04-23T04:14:13;52.67;;;25.35;;
67930;SDS011;63902;52.000;5.954;2023-04-23T04:15:14;58.00;;;26.58;;
67930;SDS011;63902;52.000;5.954;2023-04-23T04:16:14;54.47;;;26.30;;
67930;SDS011;63902;52.000;5.954;2023-04-23T04:17:15;49.60;;;26.50;;
67930;SDS011;63902;52.000;5.954;2023-04-23T04:18:15;56.70;;;27.35;;
67930;SDS011;63902;52.000;5.954;2023-04-23T04:19:16;54.35;;;27.17;;
67930;SDS011;63902;52.000;5.954;2023-04-23T04:20:16;51.28;;;26.67;;
67930;SDS011;63902;52.000;5.954;2023-04-23T04:21:17;55.50;;;26.27;;
67930;SDS011;63902;52.000;5.954;2023-04-23T04:22:18;61.95;;;28.13;;
67930;SDS011;63902;52.000;5.954;2023-04-23T04:23:18;54.42;;;26.98;;
67930;SDS011;63902;52.000;5.954;2023-04-23T04:24:18;50.78;;;26.60;;
67930;SDS011;63902;52.000;5.954;2023-04-23T04:25:20;56.33;;;25.15;;
67930;SDS011;63902;52.000;5.954;2023-04-23T04:26:21;56.97;;;28.48;;
67930;SDS011;63902;52.000;5.954;2023-04-23T04:27:21;54.05;;;27.02;;
67930;SDS011;63902;52.000;5.954;2023-04-23T04:28:22;49.47;;;26.20;;
67930;SDS011;63902;52.000;5.954;2023-04-23T04:29:22;53.63;;;26.77;;
67930;SDS011;63902;52.000;5.954;2023-04-23T04:30:23;59.38;;;27.10;;
67930;SDS011;63902;52.000;5.954;2023-04-23T04:31:23;56.80;;;27.40;;
67930;SDS011;63902;52.000;5.954;2023-04-23T04:32:24;54.05;;;26.40;;
67930;SDS011;63902;52.000;5.954;2023-04-23T04:33:24;52.40;;;26.45;;
67930;SDS011;63902;52.000;5.954;2023-04-23T04:34:25;56.08;;;28.33;;
67930;SDS011;63902;52.000;5.954;2023-04-23T04:35:25;53.40;;;27.35;;
67930;SDS011;63902;52.000;5.954;2023-04-23T04:36:26;54.47;;;27.38;;
67930;SDS011;63902;52.000;5.954;2023-04-23T04:37:26;52.42;;;26.50;;
67930;SDS011;63902;52.000;5.954;2023-04-23T04:38:27;63.80;;;29.10;;
67930;SDS011;63902;52.000;5.954;2023-04-23T04:39:27;50.92;;;25.08;;
67930;SDS011;63902;52.000;5.954;2023-04-23T04:40:29;58.53;;;29.13;;
67930;SDS011;63902;52.000;5.954;2023-04-23T04:41:30;48.88;;;25.80;;
67930;SDS011;63902;52.000;5.954;2023-04-23T04:42:30;58.10;;;27.40;;
67930;SDS011;63902;52.000;5.954;2023-04-23T04:43:31;51.83;;;26.05;;
67930;SDS011;63902;52.000;5.954;2023-04-23T04:44:31;53.05;;;26.65;;
67930;SDS011;63902;52.000;5.954;2023-04-23T04:45:32;52.33;;;25.50;;
67930;SDS011;63902;52.000;5.954;2023-04-23T04:46:32;47.90;;;25.95;;
67930;SDS011;63902;52.000;5.954;2023-04-23T04:47:33;57.80;;;27.33;;
67930;SDS011;63902;52.000;5.954;2023-04-23T04:48:33;56.13;;;25.98;;
67930;SDS011;63902;52.000;5.954;2023-04-23T04:49:34;50.00;;;24.98;;
67930;SDS011;63902;52.000;5.954;2023-04-23T04:50:34;45.28;;;24.33;;
67930;SDS011;63902;52.000;5.954;2023-04-23T04:51:35;52.50;;;25.85;;
67930;SDS011;63902;52.000;5.954;2023-04-23T04:52:36;54.63;;;27.17;;
67930;SDS011;63902;52.000;5.954;2023-04-23T04:53:36;52.28;;;26.83;;
67930;SDS011;63902;52.000;5.954;2023-04-23T04:54:37;55.30;;;27.25;;
67930;SDS011;63902;52.000;5.954;2023-04-23T04:55:39;49.40;;;26.55;;
67930;SDS011;63902;52.000;5.954;2023-04-23T04:56:39;52.10;;;26.15;;
67930;SDS011;63902;52.000;5.954;2023-04-23T04:57:40;56.85;;;26.98;;
67930;SDS011;63902;52.000;5.954;2023-04-23T04:58:40;57.00;;;27.88;;
67930;SDS011;63902;52.000;5.954;2023-04-23T04:59:41;51.75;;;26.27;;
67930;SDS011;63902;52.000;5.954;2023-04-23T05:00:41;60.17;;;26.10;;
67930;SDS011;63902;52.000;5.954;2023-04-23T05:01:42;55.90;;;27.60;;
67930;SDS011;63902;52.000;5.954;2023-04-23T05:02:42;59.20;;;27.52;;
67930;SDS011;63902;52.000;5.954;2023-04-23T05:03:43;53.13;;;26.52;;
67930;SDS011;63902;52.000;5.954;2023-04-23T05:04:43;60.53;;;28.13;;
67930;SDS011;63902;52.000;5.954;2023-04-23T05:05:44;59.40;;;28.50;;
67930;SDS011;63902;52.000;5.954;2023-04-23T05:06:44;60.22;;;27.73;;
67930;SDS011;63902;52.000;5.954;2023-04-23T05:07:45;57.80;;;27.17;;
67930;SDS011;63902;52.000;5.954;2023-04-23T05:08:45;51.55;;;27.38;;
67930;SDS011;63902;52.000;5.954;2023-04-23T05:09:46;66.18;;;27.67;;
67930;SDS011;63902;52.000;5.954;2023-04-23T05:10:48;55.50;;;26.83;;
67930;SDS011;63902;52.000;5.954;2023-04-23T05:11:49;66.07;;;27.33;;
67930;SDS011;63902;52.000;5.954;2023-04-23T05:12:49;62.60;;;28.38;;
67930;SDS011;63902;52.000;5.954;2023-04-23T05:13:50;58.28;;;28.15;;
67930;SDS011;63902;52.000;5.954;2023-04-23T05:14:50;59.13;;;28.23;;
67930;SDS011;63902;52.000;5.954;2023-04-23T05:15:50;57.13;;;26.70;;
67930;SDS011;63902;52.000;5.954;2023-04-23T05:16:51;61.05;;;29.83;;
67930;SDS011;63902;52.000;5.954;2023-04-23T05:17:52;59.58;;;28.98;;
67930;SDS011;63902;52.000;5.954;2023-04-23T05:18:52;52.88;;;28.58;;
67930;SDS011;63902;52.000;5.954;2023-04-23T05:19:53;56.67;;;27.67;;
67930;SDS011;63902;52.000;5.954;2023-04-23T05:20:53;62.90;;;27.48;;
67930;SDS011;63902;52.000;5.954;2023-04-23T05:21:54;52.95;;;26.60;;
67930;SDS011;63902;52.000;5.954;2023-04-23T05:22:54;61.45;;;27.17;;
67930;SDS011;63902;52.000;5.954;2023-04-23T05:23:55;56.65;;;28.45;;
67930;SDS011;63902;52.000;5.954;2023-04-23T05:24:55;58.20;;;27.30;;
67930;SDS011;63902;52.000;5.954;2023-04-23T05:25:57;57.72;;;27.08;;
67930;SDS011;63902;52.000;5.954;2023-04-23T05:26:58;61.20;;;27.30;;
67930;SDS011;63902;52.000;5.954;2023-04-23T05:27:58;56.90;;;27.15;;
67930;SDS011;63902;52.000;5.954;2023-04-23T05:28:59;51.13;;;25.60;;
67930;SDS011;63902;52.000;5.954;2023-04-23T05:29:59;56.47;;;26.80;;
67930;SDS011;63902;52.000;5.954;2023-04-23T05:31:00;54.38;;;27.35;;
67930;SDS011;63902;52.000;5.954;2023-04-23T05:32:00;66.78;;;27.45;;
67930;SDS011;63902;52.000;5.954;2023-04-23T05:33:01;55.13;;;27.30;;
67930;SDS011;63902;52.000;5.954;2023-04-23T05:34:01;55.70;;;26.60;;
67930;SDS011;63902;52.000;5.954;2023-04-23T05:35:02;59.28;;;27.45;;
67930;SDS011;63902;52.000;5.954;2023-04-23T05:36:03;53.80;;;27.02;;
67930;SDS011;63902;52.000;5.954;2023-04-23T05:37:04;54.63;;;27.05;;
67930;SDS011;63902;52.000;5.954;2023-04-23T05:38:04;48.97;;;24.77;;
67930;SDS011;63902;52.000;5.954;2023-04-23T05:39:05;52.20;;;25.60;;
67930;SDS011;63902;52.000;5.954;2023-04-23T05:40:05;60.42;;;27.33;;
67930;SDS011;63902;52.000;5.954;2023-04-23T05:41:08;49.58;;;25.35;;
67930;SDS011;63902;52.000;5.954;2023-04-23T05:42:08;52.78;;;27.15;;
67930;SDS011;63902;52.000;5.954;2023-04-23T05:43:09;55.42;;;26.85;;
67930;SDS011;63902;52.000;5.954;2023-04-23T05:44:09;60.05;;;27.15;;
67930;SDS011;63902;52.000;5.954;2023-04-23T05:45:10;56.63;;;28.23;;
67930;SDS011;63902;52.000;5.954;2023-04-23T05:46:10;66.80;;;27.70;;
67930;SDS011;63902;52.000;5.954;2023-04-23T05:47:11;58.33;;;27.15;;
67930;SDS011;63902;52.000;5.954;2023-04-23T05:48:12;48.83;;;26.27;;
67930;SDS011;63902;52.000;5.954;2023-04-23T05:49:13;58.28;;;26.90;;
67930;SDS011;63902;52.000;5.954;2023-04-23T05:50:13;54.88;;;26.52;;
67930;SDS011;63902;52.000;5.954;2023-04-23T05:51:14;53.25;;;25.85;;
67930;SDS011;63902;52.000;5.954;2023-04-23T05:52:14;55.92;;;28.08;;
67930;SDS011;63902;52.000;5.954;2023-04-23T05:53:15;62.17;;;28.05;;
67930;SDS011;63902;52.000;5.954;2023-04-23T05:54:15;54.05;;;25.70;;
67930;SDS011;63902;52.000;5.954;2023-04-23T05:55:16;57.95;;;26.95;;